Time;durP1;ratioP1;P1;durP2;ratioP2;P2;SDS_P1;SDS_P2;PMS_P1;PMS_P2;Temp;Humidity;BMP_temperature;BMP_pressure;BME280_temperature;BME280_humidity;BME280_pressure;Samples;Min_cycle;Max_cycle;Signal;HPM_P1;HPM_P2
2023/07/17 00:02:08;;;;;;;25.00;4.30;;;;;;;20.09;95.25;100689.19;5092665;28;20028;-69
2023/07/17 00:04:35;;;;;;;21.67;4.22;;;;;;;20.04;95.64;100700.09;5107534;28;20057;-70
2023/07/17 00:07:00;;;;;;;19.80;3.80;;;;;;;20.06;95.47;100679.59;5090298;28;20052;-69
2023/07/17 00:09:26;;;;;;;19.58;3.78;;;;;;;20.04;95.50;100691.91;5091948;28;20136;-69
2023/07/17 00:11:51;;;;;;;20.73;3.97;;;;;;;20.03;95.64;100699.25;5107372;28;20035;-69
2023/07/17 00:14:17;;;;;;;24.30;4.50;;;;;;;20.01;95.84;100695.16;5091866;28;20449;-69
2023/07/17 00:16:43;;;;;;;27.15;4.72;;;;;;;20.03;95.82;100693.78;5106952;28;20073;-69
2023/07/17 00:19:08;;;;;;;23.33;4.35;;;;;;;19.99;96.07;100689.94;5107181;28;20115;-69
2023/07/17 00:21:34;;;;;;;18.83;4.25;;;;;;;19.98;96.52;100703.88;5090268;28;20028;-70
2023/07/17 00:23:59;;;;;;;22.52;4.60;;;;;;;19.88;97.19;100704.63;5091399;28;20367;-70
2023/07/17 00:26:25;;;;;;;23.50;4.05;;;;;;;19.88;97.12;100699.19;5107768;28;20081;-69
2023/07/17 00:29:10;;;;;;;26.92;5.15;;;;;;;19.75;98.05;100702.38;5090682;28;20506;-69
2023/07/17 00:31:36;;;;;;;29.05;5.15;;;;;;;19.73;97.73;100699.88;5104784;28;20036;-69
2023/07/17 00:34:01;;;;;;;23.88;4.03;;;;;;;19.75;97.87;100710.56;5107391;28;20093;-70
2023/07/17 00:36:26;;;;;;;26.08;5.65;;;;;;;19.67;98.55;100706.41;5090169;28;20047;-69
2023/07/17 00:38:52;;;;;;;21.38;3.85;;;;;;;19.57;99.09;100709.84;5106990;28;20032;-69
2023/07/17 00:41:17;;;;;;;23.48;4.50;;;;;;;19.53;99.46;100695.06;5073225;28;20028;-70
2023/07/17 00:43:42;;;;;;;25.85;4.78;;;;;;;19.53;99.23;100700.53;5107047;28;20024;-70
2023/07/17 00:46:08;;;;;;;31.35;5.47;;;;;;;19.51;99.14;100689.06;5091244;28;20112;-70
2023/07/17 00:48:33;;;;;;;21.25;4.20;;;;;;;19.51;99.23;100697.25;5106871;28;20272;-70
2023/07/17 00:51:01;;;;;;;24.02;4.30;;;;;;;19.46;99.41;100700.75;5107282;28;20501;-70
2023/07/17 00:53:26;;;;;;;34.08;5.18;;;;;;;19.42;99.49;100687.91;5091650;28;20028;-69
2023/07/17 00:55:52;;;;;;;21.90;4.45;;;;;;;19.42;99.34;100687.91;5107282;28;20043;-70
2023/07/17 00:58:17;;;;;;;26.15;4.40;;;;;;;19.39;99.54;100704.78;5091294;28;20016;-69
2023/07/17 01:00:42;;;;;;;24.25;4.65;;;;;;;19.40;99.81;100698.22;5090763;28;20532;-69
2023/07/17 01:03:08;;;;;;;27.13;4.50;;;;;;;19.37;99.71;100696.88;5089817;28;20051;-69
2023/07/17 01:05:34;;;;;;;20.92;4.35;;;;;;;19.39;99.94;100702.06;5106863;28;20448;-70
2023/07/17 01:07:59;;;;;;;21.10;4.38;;;;;;;19.40;100.00;100707.28;5072811;28;20028;-70
2023/07/17 01:10:25;;;;;;;30.20;4.88;;;;;;;19.38;100.00;100703.16;5089819;28;20403;-69
2023/07/17 01:12:51;;;;;;;25.70;4.97;;;;;;;19.39;100.00;100707.50;5093699;28;20115;-69
2023/07/17 01:15:16;;;;;;;25.90;4.38;;;;;;;19.36;100.00;100703.41;5094961;28;20035;-69
2023/07/17 01:17:42;;;;;;;27.25;4.75;;;;;;;19.35;100.00;100714.59;5093544;28;20398;-70
2023/07/17 01:20:10;;;;;;;29.70;4.95;;;;;;;19.33;100.00;100700.38;5110822;28;20043;-69
2023/07/17 01:22:46;;;;;;;24.55;3.97;;;;;;;19.34;100.00;100705.56;5110232;28;20024;-71
2023/07/17 01:25:12;;;;;;;25.27;4.72;;;;;;;19.32;100.00;100705.00;5095133;28;20058;-70
2023/07/17 01:27:37;;;;;;;26.58;5.28;;;;;;;19.32;100.00;100702.28;5093219;28;20032;-70
2023/07/17 01:30:04;;;;;;;26.08;5.00;;;;;;;19.35;100.00;100700.94;5093759;28;20073;-70
2023/07/17 01:32:30;;;;;;;26.92;4.65;;;;;;;19.33;100.00;100689.44;5093998;28;20024;-70
2023/07/17 01:34:55;;;;;;;25.38;5.13;;;;;;;19.33;100.00;100700.38;5093701;28;20179;-70
2023/07/17 01:37:21;;;;;;;29.75;5.13;;;;;;;19.32;100.00;100704.19;5110242;28;20024;-70
2023/07/17 01:39:46;;;;;;;29.70;5.35;;;;;;;19.30;100.00;100701.69;5094715;28;20467;-70
2023/07/17 01:42:11;;;;;;;28.23;5.13;;;;;;;19.30;100.00;100712.59;5093134;28;20035;-70
2023/07/17 01:44:37;;;;;;;30.95;5.50;;;;;;;19.17;100.00;100685.75;5093079;28;20502;-70
2023/07/17 01:47:03;;;;;;;34.63;5.43;;;;;;;19.28;100.00;100703.88;5092912;28;20094;-70
2023/07/17 01:49:28;;;;;;;33.67;5.55;;;;;;;19.15;100.00;100682.50;5111301;28;20079;-71
2023/07/17 01:51:54;;;;;;;31.75;5.35;;;;;;;19.23;100.00;100692.91;5093747;28;20095;-70
2023/07/17 01:54:19;;;;;;;25.08;4.88;;;;;;;19.30;100.00;100709.06;5092842;28;20035;-70
2023/07/17 01:56:44;;;;;;;32.10;5.68;;;;;;;19.27;100.00;100702.25;5092825;28;20643;-70
2023/07/17 01:59:10;;;;;;;30.65;5.00;;;;;;;19.29;100.00;100708.25;5092826;28;20035;-70
2023/07/17 02:01:35;;;;;;;31.45;5.43;;;;;;;19.29;100.00;100700.06;5092751;28;20059;-70
2023/07/17 02:04:01;;;;;;;30.42;6.00;;;;;;;19.30;100.00;100707.16;5109719;28;20050;-70
2023/07/17 02:06:27;;;;;;;34.47;5.70;;;;;;;19.19;100.00;100683.59;5093974;28;20031;-70
2023/07/17 02:08:52;;;;;;;31.05;5.10;;;;;;;19.30;100.00;100703.59;5092749;28;20040;-70
2023/07/17 02:11:19;;;;;;;28.90;5.47;;;;;;;19.29;100.00;100710.97;5109720;28;20112;-70
2023/07/17 02:13:44;;;;;;;31.80;5.97;;;;;;;19.33;100.00;100705.81;5092676;28;20028;-70
2023/07/17 02:16:09;;;;;;;29.98;5.10;;;;;;;19.36;100.00;100703.41;5109399;28;20026;-70
2023/07/17 02:18:35;;;;;;;24.83;4.57;;;;;;;19.21;100.00;100679.53;5109579;28;20046;-69
2023/07/17 02:21:00;;;;;;;30.48;5.03;;;;;;;19.35;100.00;100712.66;5092397;28;20028;-70
2023/07/17 02:23:26;;;;;;;26.45;4.55;;;;;;;19.34;100.00;100704.75;5108246;28;20491;-70
2023/07/17 02:25:51;;;;;;;31.00;5.43;;;;;;;19.35;100.00;100709.13;5093986;28;20032;-69
2023/07/17 02:28:16;;;;;;;25.33;5.20;;;;;;;19.31;100.00;100702.53;5093724;28;20024;-69
2023/07/17 02:30:42;;;;;;;22.00;4.55;;;;;;;19.33;100.00;100706.63;5109308;28;20055;-69
2023/07/17 02:33:07;;;;;;;31.70;5.45;;;;;;;19.31;100.00;100699.81;5093930;28;20036;-70
2023/07/17 02:35:33;;;;;;;23.77;4.43;;;;;;;19.31;100.00;100697.91;5093849;28;20039;-69
2023/07/17 02:37:58;;;;;;;28.15;4.78;;;;;;;19.36;100.00;100700.66;5095068;28;20453;-69
2023/07/17 02:40:24;;;;;;;34.35;5.72;;;;;;;19.37;100.00;100707.78;5112757;28;20089;-69
2023/07/17 02:42:49;;;;;;;29.52;5.03;;;;;;;19.31;100.00;100708.00;5093596;28;20064;-70
2023/07/17 02:45:15;;;;;;;35.08;5.30;;;;;;;19.38;100.00;100709.44;5092034;28;20032;-70
2023/07/17 02:47:40;;;;;;;25.48;4.93;;;;;;;19.41;100.00;100703.44;5093254;28;20507;-70
2023/07/17 02:50:07;;;;;;;25.35;5.68;;;;;;;19.47;100.00;100712.50;5093391;28;20490;-69
2023/07/17 02:52:36;;;;;;;27.30;4.97;;;;;;;19.44;100.00;100713.03;5091479;28;20073;-69
2023/07/17 02:55:04;;;;;;;34.13;5.60;;;;;;;19.53;100.00;100697.78;5108418;28;20115;-69
2023/07/17 02:57:34;;;;;;;29.88;5.20;;;;;;;19.57;100.00;100704.41;5091814;28;20020;-70
2023/07/17 02:59:59;;;;;;;31.05;5.80;;;;;;;19.62;100.00;100715.34;5092672;28;20458;-70
2023/07/17 03:02:25;;;;;;;29.27;5.10;;;;;;;19.61;100.00;100705.50;5098374;28;20074;-69
2023/07/17 03:04:50;;;;;;;30.98;5.95;;;;;;;19.59;100.00;100694.03;5097348;28;20016;-69
2023/07/17 03:07:16;;;;;;;27.92;5.82;;;;;;;19.71;100.00;100708.34;5075174;28;20032;-69
2023/07/17 03:09:41;;;;;;;31.77;5.57;;;;;;;19.80;100.00;100708.69;5111450;28;20122;-69
2023/07/17 03:12:07;;;;;;;28.50;5.70;;;;;;;19.69;100.00;100693.31;5098942;28;20183;-69
2023/07/17 03:14:32;;;;;;;32.20;5.95;;;;;;;19.74;100.00;100703.47;5098672;28;20028;-69
2023/07/17 03:16:57;;;;;;;32.20;5.32;;;;;;;19.84;100.00;100706.25;5113700;28;20546;-69
2023/07/17 03:19:23;;;;;;;32.50;6.00;;;;;;;19.90;100.00;100705.19;5094967;28;20564;-70
2023/07/17 03:21:48;;;;;;;36.22;6.10;;;;;;;19.95;100.00;100705.22;5095983;28;20024;-70
2023/07/17 03:24:14;;;;;;;26.92;5.57;;;;;;;19.80;100.00;100675.09;5112922;28;20087;-70
2023/07/17 03:26:40;;;;;;;33.90;6.78;;;;;;;19.85;100.00;100684.13;5093746;28;20032;-70
2023/07/17 03:29:06;;;;;;;34.25;5.90;;;;;;;19.88;100.00;100701.91;5094372;28;20066;-70
2023/07/17 03:31:31;;;;;;;38.38;5.80;;;;;;;19.93;100.00;100702.78;5109760;28;20103;-70
2023/07/17 03:33:56;;;;;;;28.63;5.93;;;;;;;19.93;100.00;100707.38;5109468;28;20103;-69
2023/07/17 03:36:22;;;;;;;31.77;6.40;;;;;;;20.02;100.00;100703.06;5109177;28;20099;-69
2023/07/17 03:38:48;;;;;;;31.23;6.75;;;;;;;20.02;100.00;100699.53;5111196;28;20134;-70
2023/07/17 03:41:13;;;;;;;38.60;6.55;;;;;;;19.99;100.00;100714.53;5094792;28;20107;-69
2023/07/17 03:43:38;;;;;;;36.17;5.65;;;;;;;19.93;100.00;100686.38;5109529;28;20044;-72
2023/07/17 03:46:04;;;;;;;29.20;5.63;;;;;;;19.88;100.00;100680.06;5100712;28;20039;-69
2023/07/17 03:48:29;;;;;;;28.83;5.10;;;;;;;19.94;100.00;100692.66;5092997;28;20048;-70
2023/07/17 03:50:55;;;;;;;31.70;5.90;;;;;;;19.98;100.00;100701.97;5092628;28;20066;-70
2023/07/17 03:53:20;;;;;;;27.85;5.32;;;;;;;20.00;100.00;100691.59;5091489;28;20026;-70
2023/07/17 03:55:46;;;;;;;31.48;5.97;;;;;;;19.96;100.00;100717.78;5091345;28;20111;-69
2023/07/17 03:58:11;;;;;;;35.10;6.32;;;;;;;20.03;100.00;100696.50;5090796;28;20031;-69
2023/07/17 04:00:36;;;;;;;29.52;5.43;;;;;;;20.00;100.00;100690.75;5090885;28;20036;-70
2023/07/17 04:03:02;;;;;;;29.90;5.55;;;;;;;20.04;100.00;100702.81;5091355;28;20024;-70
2023/07/17 04:05:27;;;;;;;32.40;5.93;;;;;;;19.96;100.00;100690.47;5107778;28;20055;-70
2023/07/17 04:07:53;;;;;;;33.83;5.60;;;;;;;20.04;100.00;100705.56;5091645;28;20028;-69
2023/07/17 04:10:18;;;;;;;26.48;5.60;;;;;;;19.99;100.00;100692.69;5107223;28;20035;-70
2023/07/17 04:12:44;;;;;;;31.92;5.38;;;;;;;20.04;100.00;100697.38;5107964;28;20043;-70
2023/07/17 04:15:10;;;;;;;30.13;5.53;;;;;;;19.99;100.00;100700.88;5092870;28;20024;-70
2023/07/17 04:17:35;;;;;;;33.05;6.45;;;;;;;20.10;100.00;100690.84;5090048;28;20046;-70
2023/07/17 04:20:01;;;;;;;35.95;6.32;;;;;;;20.07;100.00;100688.66;5090095;28;20020;-70
2023/07/17 04:22:26;;;;;;;37.53;6.03;;;;;;;20.17;100.00;100692.25;5091678;28;20045;-70
2023/07/17 04:24:52;;;;;;;28.33;5.32;;;;;;;20.15;100.00;100694.41;5107316;28;20078;-70
2023/07/17 04:27:17;;;;;;;35.50;5.80;;;;;;;20.22;100.00;100701.53;5092611;28;20043;-70
2023/07/17 04:29:43;;;;;;;32.90;5.63;;;;;;;20.05;100.00;100686.16;5091002;28;20105;-70
2023/07/17 04:32:08;;;;;;;35.88;6.65;;;;;;;20.14;100.00;100672.84;5091438;28;20056;-70
2023/07/17 04:34:34;;;;;;;26.05;5.70;;;;;;;20.13;100.00;100698.47;5073153;28;20032;-71
2023/07/17 04:36:59;;;;;;;26.20;5.47;;;;;;;20.10;100.00;100707.25;5090131;28;20029;-70
2023/07/17 04:39:24;;;;;;;22.05;5.22;;;;;;;20.17;100.00;100719.56;5091464;28;20058;-70
2023/07/17 04:41:52;;;;;;;30.30;5.47;;;;;;;20.17;100.00;100708.63;5090617;28;20052;-69
2023/07/17 04:44:17;;;;;;;29.05;5.82;;;;;;;20.13;100.00;100712.16;5095041;28;20046;-70
2023/07/17 04:46:43;;;;;;;39.38;6.13;;;;;;;20.27;100.00;100720.72;5096607;28;20032;-70
2023/07/17 04:49:08;;;;;;;25.33;5.57;;;;;;;20.17;100.00;100716.84;5095481;28;20475;-70
2023/07/17 04:51:33;;;;;;;28.80;6.05;;;;;;;20.14;100.00;100705.63;5095546;28;20184;-70
2023/07/17 04:53:59;;;;;;;23.90;5.07;;;;;;;20.18;100.00;100715.72;5110878;28;20028;-70
2023/07/17 04:56:24;;;;;;;34.88;5.65;;;;;;;20.09;100.00;100702.84;5095497;28;20035;-70
2023/07/17 04:58:50;;;;;;;23.98;5.00;;;;;;;20.13;100.00;100709.41;5095775;28;20429;-69
2023/07/17 05:01:15;;;;;;;25.23;5.25;;;;;;;20.04;100.00;100711.84;5096435;28;20056;-70
2023/07/17 05:03:40;;;;;;;30.02;5.75;;;;;;;20.17;100.00;100713.28;5076845;28;20032;-70
2023/07/17 05:06:06;;;;;;;29.05;5.18;;;;;;;20.13;100.00;100704.78;5111645;28;20487;-69
2023/07/17 05:08:31;;;;;;;29.30;5.38;;;;;;;20.22;100.00;100720.66;5112706;28;20093;-70
2023/07/17 05:10:58;;;;;;;32.50;5.63;;;;;;;20.06;100.00;100706.91;5094893;28;20051;-70
2023/07/17 05:13:24;;;;;;;25.58;5.13;;;;;;;20.07;100.00;100700.38;5094755;28;20479;-70
2023/07/17 05:15:50;;;;;;;23.27;5.00;;;;;;;20.20;100.00;100701.81;5110849;28;20074;-70
2023/07/17 05:18:16;;;;;;;28.40;5.63;;;;;;;20.35;100.00;100715.53;5094795;28;20043;-70
2023/07/17 05:20:50;;;;;;;27.63;5.57;;;;;;;20.48;100.00;100711.50;5093553;28;20036;-70
2023/07/17 05:23:17;;;;;;;28.63;6.03;;;;;;;20.51;100.00;100712.91;5094752;28;20087;-70
2023/07/17 05:25:52;;;;;;;30.80;5.95;;;;;;;20.53;100.00;100713.44;5095007;28;20051;-70
2023/07/17 05:28:18;;;;;;;31.45;5.93;;;;;;;20.54;100.00;100710.47;5094948;28;20016;-70
2023/07/17 05:30:43;;;;;;;30.55;5.90;;;;;;;20.51;100.00;100701.97;5094428;28;20039;-69
2023/07/17 05:33:08;;;;;;;27.70;5.82;;;;;;;20.54;100.00;100699.53;5110425;28;20024;-70
2023/07/17 05:35:34;;;;;;;32.67;5.47;;;;;;;20.73;100.00;100707.22;5110335;28;20429;-70
2023/07/17 05:37:59;;;;;;;31.45;5.47;;;;;;;20.61;100.00;100693.81;5093411;28;20115;-71
2023/07/17 05:40:25;;;;;;;30.88;5.55;;;;;;;20.64;100.00;100699.56;5094737;28;20432;-70
2023/07/17 05:42:50;;;;;;;29.23;5.57;;;;;;;20.71;100.00;100715.72;5098375;28;20072;-70
2023/07/17 05:45:16;;;;;;;26.75;5.63;;;;;;;20.72;100.00;100717.34;5094967;28;20393;-70
2023/07/17 05:47:41;;;;;;;24.05;5.10;;;;;;;20.59;100.00;100706.91;5094567;28;20056;-70
2023/07/17 05:50:08;;;;;;;25.98;4.82;;;;;;;20.59;100.00;100713.19;5093203;28;20217;-70
2023/07/17 05:52:33;;;;;;;26.17;4.82;;;;;;;20.54;99.93;100698.72;5110424;28;20027;-70
2023/07/17 05:54:59;;;;;;;27.30;4.32;;;;;;;20.71;99.65;100709.44;5094467;28;20024;-70
2023/07/17 05:57:24;;;;;;;28.73;5.22;;;;;;;20.77;98.86;100711.09;5093157;28;20028;-70
2023/07/17 05:59:50;;;;;;;26.63;4.72;;;;;;;20.77;98.83;100708.34;5109929;28;20093;-70
2023/07/17 06:02:15;;;;;;;22.45;4.63;;;;;;;20.63;99.15;100695.19;5094236;28;20047;-70
2023/07/17 06:04:41;;;;;;;29.95;4.85;;;;;;;20.73;98.71;100699.03;5092810;28;20036;-70
2023/07/17 06:07:07;;;;;;;26.85;4.63;;;;;;;20.72;98.77;100728.28;5110243;28;20077;-70
2023/07/17 06:09:34;;;;;;;23.05;5.47;;;;;;;20.71;98.35;100693.84;5094664;28;20450;-70
2023/07/17 06:12:01;;;;;;;25.77;4.60;;;;;;;20.82;97.89;100695.50;5094111;28;20032;-71
2023/07/17 06:14:27;;;;;;;26.92;4.47;;;;;;;21.03;97.23;100723.72;5093305;28;20024;-70
2023/07/17 06:16:52;;;;;;;33.30;5.15;;;;;;;21.21;96.21;100718.81;5093799;28;20160;-70
2023/07/17 06:19:18;;;;;;;30.52;5.38;;;;;;;21.32;95.87;100715.00;5093720;28;20556;-70
2023/07/17 06:21:44;;;;;;;24.95;4.43;;;;;;;21.31;95.79;100714.19;5092737;28;20103;-71
2023/07/17 06:24:10;;;;;;;30.45;4.88;;;;;;;21.32;95.43;100704.03;5092402;28;20028;-70
2023/07/17 06:26:36;;;;;;;29.38;5.45;;;;;;;21.53;94.94;100718.59;5092506;28;20028;-71
2023/07/17 06:29:03;;;;;;;26.45;5.10;;;;;;;21.54;94.53;100698.34;5092408;28;20039;-70
2023/07/17 06:31:28;;;;;;;24.67;4.82;;;;;;;21.63;94.30;100713.13;5109004;28;20020;-70
2023/07/17 06:33:54;;;;;;;29.17;4.88;;;;;;;21.55;94.43;100709.00;5092537;28;20039;-70
2023/07/17 06:36:19;;;;;;;27.10;5.40;;;;;;;21.63;93.89;100720.53;5109188;28;20497;-70
2023/07/17 06:38:45;;;;;;;22.73;4.25;;;;;;;21.60;93.79;100713.66;5109183;28;20043;-70
2023/07/17 06:41:10;;;;;;;26.67;4.80;;;;;;;21.75;93.18;100712.81;5075107;28;20498;-70
2023/07/17 06:43:35;;;;;;;20.05;4.15;;;;;;;21.83;92.95;100708.72;5092209;28;20040;-70
2023/07/17 06:46:01;;;;;;;25.73;4.80;;;;;;;21.83;92.57;100698.59;5092659;28;20496;-70
2023/07/17 06:48:26;;;;;;;24.75;5.03;;;;;;;21.89;92.31;100713.09;5093861;28;20060;-70
2023/07/17 06:50:52;;;;;;;22.38;4.70;;;;;;;21.93;91.90;100719.66;5093290;28;20033;-70
2023/07/17 06:53:20;;;;;;;27.42;4.82;;;;;;;21.97;92.05;100704.28;5110942;28;20040;-70
2023/07/17 06:55:54;;;;;;;22.20;4.22;;;;;;;21.93;91.84;100697.75;5110828;28;20050;-69
2023/07/17 06:58:19;;;;;;;27.85;4.75;;;;;;;22.02;91.91;100709.78;5094067;28;20053;-70
2023/07/17 07:00:45;;;;;;;24.30;4.35;;;;;;;22.02;91.77;100716.06;5093686;28;20028;-70
2023/07/17 07:03:10;;;;;;;28.70;5.22;;;;;;;22.12;91.47;100717.13;5092379;28;20039;-70
2023/07/17 07:05:35;;;;;;;32.13;5.63;;;;;;;22.04;91.93;100715.78;5092068;28;20121;-70
2023/07/17 07:08:02;;;;;;;22.52;4.50;;;;;;;21.92;92.10;100718.84;5109028;28;20290;-70
2023/07/17 07:10:28;;;;;;;24.75;4.72;;;;;;;22.09;91.51;100723.19;5091530;28;20036;-70
2023/07/17 07:12:55;;;;;;;26.88;5.10;;;;;;;22.18;91.67;100724.28;5091997;28;20107;-70
2023/07/17 07:15:21;;;;;;;27.50;5.40;;;;;;;22.28;90.83;100718.75;5091925;28;20032;-70
2023/07/17 07:17:46;;;;;;;26.08;4.75;;;;;;;22.25;90.78;100713.81;5108836;28;20518;-70
2023/07/17 07:20:12;;;;;;;26.17;5.38;;;;;;;22.24;90.54;100715.75;5092171;28;20506;-70
2023/07/17 07:22:37;;;;;;;22.85;4.80;;;;;;;22.21;90.64;100710.81;5108264;28;20028;-70
2023/07/17 07:25:03;;;;;;;23.58;4.30;;;;;;;22.29;90.66;100723.16;5108443;28;20081;-70
2023/07/17 07:27:31;;;;;;;23.25;5.30;;;;;;;22.21;89.96;100718.22;5108494;28;20372;-71
2023/07/17 07:29:56;;;;;;;24.92;4.80;;;;;;;22.08;90.92;100730.56;5092537;28;20073;-70
2023/07/17 07:32:21;;;;;;;24.70;4.78;;;;;;;22.01;90.98;100719.06;5092453;28;20032;-70
2023/07/17 07:34:48;;;;;;;23.65;5.00;;;;;;;22.25;90.95;100733.84;5108412;28;20043;-70
2023/07/17 07:37:13;;;;;;;27.60;4.95;;;;;;;22.26;90.86;100723.72;5092277;28;20498;-70
2023/07/17 07:39:39;;;;;;;27.42;4.72;;;;;;;22.22;91.36;100731.69;5108242;28;20043;-70
2023/07/17 07:42:05;;;;;;;27.08;5.10;;;;;;;22.23;91.36;100727.00;5091383;28;20035;-70
2023/07/17 07:44:30;;;;;;;28.55;5.47;;;;;;;22.14;91.75;100731.38;5093165;28;20052;-71
2023/07/17 07:46:56;;;;;;;26.80;5.25;;;;;;;22.26;91.89;100735.50;5092269;28;20115;-71
2023/07/17 07:49:21;;;;;;;32.58;5.57;;;;;;;22.27;91.81;100728.91;5090834;28;20024;-71
2023/07/17 07:51:47;;;;;;;24.92;5.07;;;;;;;22.13;90.81;100710.56;5092179;28;20488;-70
2023/07/17 07:54:14;;;;;;;30.65;5.47;;;;;;;22.27;90.66;100728.09;5090726;28;20251;-70
2023/07/17 07:56:39;;;;;;;25.67;4.85;;;;;;;22.31;90.88;100725.59;5090864;28;20062;-71
2023/07/17 07:59:05;;;;;;;22.25;5.00;;;;;;;22.42;90.90;100727.22;5108367;28;20107;-70
2023/07/17 08:01:30;;;;;;;24.10;4.55;;;;;;;22.47;90.58;100728.00;5091134;28;20475;-70
2023/07/17 08:03:55;;;;;;;26.23;4.57;;;;;;;22.54;90.41;100724.16;5090743;28;20028;-70
2023/07/17 08:06:23;;;;;;;25.13;5.68;;;;;;;22.64;89.70;100735.88;5090811;28;20161;-70
2023/07/17 08:08:48;;;;;;;30.35;5.65;;;;;;;22.78;89.32;100736.13;5090313;28;20115;-70
2023/07/17 08:11:14;;;;;;;25.92;5.05;;;;;;;22.93;89.32;100733.31;5091500;28;20435;-69
2023/07/17 08:13:39;;;;;;;29.25;4.80;;;;;;;23.07;88.90;100728.00;5107525;28;20042;-69
2023/07/17 08:16:05;;;;;;;25.98;5.15;;;;;;;23.28;87.77;100714.13;5091701;28;20040;-70
2023/07/17 08:18:31;;;;;;;22.13;4.75;;;;;;;23.52;86.37;100733.44;5107709;28;20032;-70
2023/07/17 08:20:56;;;;;;;20.60;4.63;;;;;;;23.70;84.79;100719.00;5091058;28;20030;-70
2023/07/17 08:23:25;;;;;;;22.35;5.20;;;;;;;24.07;83.42;100712.03;5090661;28;20078;-70
2023/07/17 08:25:51;;;;;;;20.85;4.70;;;;;;;24.10;83.22;100719.72;5092238;28;20096;-70
2023/07/17 08:28:17;;;;;;;25.52;5.15;;;;;;;23.99;83.33;100698.97;5090138;28;20078;-69
2023/07/17 08:30:43;;;;;;;25.13;5.32;;;;;;;24.35;82.88;100724.94;5090061;28;20081;-70
2023/07/17 08:33:09;;;;;;;26.77;4.65;;;;;;;24.58;82.69;100733.50;5090500;28;20036;-70
2023/07/17 08:35:34;;;;;;;22.42;5.03;;;;;;;24.27;83.44;100722.84;5090801;28;20380;-70
2023/07/17 08:38:00;;;;;;;22.90;4.75;;;;;;;23.92;83.97;100727.59;5091541;28;20031;-70
2023/07/17 08:40:26;;;;;;;26.73;5.70;;;;;;;23.70;84.36;100734.69;5108687;28;20040;-70
2023/07/17 08:42:52;;;;;;;25.52;4.75;;;;;;;23.54;84.16;100734.81;5091523;28;20020;-69
2023/07/17 08:45:22;;;;;;;22.95;4.65;;;;;;;23.45;84.22;100722.78;5091510;28;20032;-70
2023/07/17 08:47:50;;;;;;;23.63;4.97;;;;;;;23.35;84.35;100726.44;5091191;28;20056;-70
2023/07/17 08:50:16;;;;;;;21.67;4.68;;;;;;;23.39;84.70;100722.00;5092105;28;20133;-69
2023/07/17 08:52:42;;;;;;;29.23;5.72;;;;;;;23.48;84.67;100708.50;5106866;28;20093;-70
2023/07/17 08:55:08;;;;;;;26.23;5.45;;;;;;;23.82;84.06;100724.97;5089951;28;20032;-70
2023/07/17 08:57:35;;;;;;;25.13;5.10;;;;;;;23.92;82.46;100724.03;5091429;28;20394;-70
2023/07/17 09:00:01;;;;;;;28.52;4.90;;;;;;;24.08;81.79;100727.44;5107451;28;20488;-70
2023/07/17 09:02:27;;;;;;;25.73;5.55;;;;;;;23.94;81.31;100734.72;5091819;28;20083;-70
2023/07/17 09:04:52;;;;;;;21.75;4.35;;;;;;;23.71;81.88;100734.41;5089861;28;20032;-70
2023/07/17 09:07:18;;;;;;;24.17;5.30;;;;;;;23.49;82.63;100734.03;5072997;28;20047;-70
2023/07/17 09:09:43;;;;;;;28.80;5.25;;;;;;;23.10;84.20;100740.34;5107471;28;20521;-70
2023/07/17 09:12:10;;;;;;;24.65;5.00;;;;;;;22.80;85.14;100744.88;5106673;28;20562;-70
2023/07/17 09:14:36;;;;;;;26.13;4.65;;;;;;;22.46;86.88;100733.78;5090350;28;20040;-70
2023/07/17 09:17:04;;;;;;;24.35;4.95;;;;;;;22.30;88.21;100738.50;5091865;28;20039;-70
2023/07/17 09:19:32;;;;;;;21.85;4.60;;;;;;;21.95;90.17;100726.50;5091145;28;20020;-70
2023/07/17 09:21:59;;;;;;;26.92;5.15;;;;;;;21.86;91.72;100755.56;5108269;28;20112;-70
2023/07/17 09:24:27;;;;;;;21.23;4.00;;;;;;;21.25;91.29;100770.00;5090767;28;20122;-70
2023/07/17 09:26:56;;;;;;;24.48;3.70;;;;;;;20.37;92.47;100786.34;5090397;28;20024;-70
2023/07/17 09:29:26;;;;;;;20.25;3.10;;;;;;;19.91;92.52;100802.44;5091641;28;20541;-70
2023/07/17 09:31:51;;;;;;;25.23;3.70;;;;;;;19.33;93.93;100785.75;5090163;28;20135;-70
2023/07/17 09:34:18;;;;;;;22.23;4.18;;;;;;;18.90;95.37;100786.66;5109599;28;20024;-70
2023/07/17 09:36:44;;;;;;;27.08;4.80;;;;;;;18.72;96.12;100777.75;5093850;28;20067;-69
2023/07/17 09:39:10;;;;;;;37.28;5.20;;;;;;;18.62;96.94;100784.94;5094131;28;20474;-70
2023/07/17 09:41:35;;;;;;;30.55;5.40;;;;;;;18.58;98.19;100776.44;5094581;28;20111;-70
2023/07/17 09:44:06;;;;;;;32.70;4.65;;;;;;;18.55;98.63;100764.16;5076256;28;20123;-70
2023/07/17 09:46:37;;;;;;;26.85;3.97;;;;;;;18.53;99.57;100774.47;5093384;28;20028;-70
2023/07/17 09:49:04;;;;;;;26.35;4.95;;;;;;;18.31;100.00;100690.00;5092894;28;20052;-70
2023/07/17 09:51:30;;;;;;;24.45;4.40;;;;;;;18.67;100.00;100705.94;5093423;28;20032;-70
2023/07/17 09:53:57;;;;;;;23.90;4.40;;;;;;;18.79;100.00;100693.03;5094630;28;20445;-70
2023/07/17 09:56:26;;;;;;;24.75;3.50;;;;;;;18.94;100.00;100725.06;5111187;28;20020;-70
2023/07/17 09:58:55;;;;;;;22.80;3.42;;;;;;;19.00;100.00;100721.31;5093475;28;20064;-69
2023/07/17 10:01:25;;;;;;;18.17;2.95;;;;;;;19.10;100.00;100715.97;5092653;28;20081;-70
2023/07/17 10:03:51;;;;;;;23.83;3.13;;;;;;;19.13;100.00;100709.19;5092912;28;20039;-70
2023/07/17 10:06:18;;;;;;;19.88;3.22;;;;;;;19.33;100.00;100727.66;5094631;28;20028;-69
2023/07/17 10:08:50;;;;;;;19.50;3.00;;;;;;;19.45;100.00;100752.88;5109602;28;20032;-70
2023/07/17 10:11:17;;;;;;;17.83;2.90;;;;;;;19.44;100.00;100745.78;5092430;28;20036;-70
2023/07/17 10:13:48;;;;;;;20.92;3.28;;;;;;;19.48;100.00;100738.72;5092555;28;20028;-70
2023/07/17 10:16:16;;;;;;;23.40;3.42;;;;;;;19.58;100.00;100746.97;5093855;28;20035;-69
2023/07/17 10:18:49;;;;;;;29.50;3.42;;;;;;;19.57;100.00;100734.44;5108869;28;20040;-70
2023/07/17 10:21:18;;;;;;;34.38;4.22;;;;;;;19.73;100.00;100743.56;5093759;28;20023;-70
2023/07/17 10:23:45;;;;;;;30.67;3.85;;;;;;;19.98;100.00;100745.66;5093661;28;20113;-70
2023/07/17 10:26:13;;;;;;;29.17;4.78;;;;;;;19.98;100.00;100729.28;5109415;28;20028;-70
2023/07/17 10:28:40;;;;;;;28.17;3.65;;;;;;;20.23;100.00;100744.16;5093519;28;20032;-70
2023/07/17 10:31:33;;;;;;;23.92;3.63;;;;;;;20.26;100.00;100762.75;5093559;28;20132;-70
2023/07/17 10:34:04;;;;;;;26.55;3.38;;;;;;;20.42;100.00;100759.03;5090840;28;20055;-69
2023/07/17 10:36:44;;;;;;;25.48;3.42;;;;;;;20.62;100.00;100752.84;5092865;28;20032;-69
2023/07/17 10:39:17;;;;;;;33.25;3.42;;;;;;;20.67;100.00;100741.97;5093747;28;20151;-70
2023/07/17 10:41:42;;;;;;;26.23;3.15;;;;;;;20.77;99.69;100758.41;5092406;28;20028;-70
2023/07/17 10:44:08;;;;;;;25.30;3.10;;;;;;;20.92;99.15;100756.78;5109770;28;20020;-70
2023/07/17 10:46:37;;;;;;;15.35;2.35;;;;;;;20.80;99.26;100741.44;5093347;28;20036;-70
2023/07/17 10:49:06;;;;;;;20.77;3.33;;;;;;;20.95;99.28;100759.00;5092060;28;20502;-69
2023/07/17 10:51:32;;;;;;;16.25;2.10;;;;;;;20.79;99.27;100749.91;5092063;28;20028;-70
2023/07/17 10:53:58;;;;;;;16.40;1.80;;;;;;;20.86;98.37;100753.22;5093302;28;20082;-70
2023/07/17 10:56:24;;;;;;;14.70;1.83;;;;;;;20.90;98.26;100751.59;5109046;28;20244;-70
2023/07/17 10:58:51;;;;;;;11.48;1.77;;;;;;;20.93;97.97;100745.59;5091780;28;20019;-70
2023/07/17 11:01:16;;;;;;;13.95;1.85;;;;;;;20.97;97.44;100751.34;5091535;28;20495;-69
2023/07/17 11:03:48;;;;;;;9.70;1.70;;;;;;;21.05;96.66;100735.22;5091423;28;20039;-70
2023/07/17 11:06:18;;;;;;;9.43;1.70;;;;;;;21.32;96.35;100758.78;5092617;28;20097;-70
2023/07/17 11:08:54;;;;;;;10.30;1.50;;;;;;;21.43;95.80;100765.16;5108441;28;20106;-70
2023/07/17 11:11:19;;;;;;;9.25;1.38;;;;;;;21.48;95.31;100774.16;5092725;28;20028;-70